Nearby METAR Reports

 

KTOP - Billard Municipal Airport, Topeka, Kansas, USA
Updated: 01-18-2018 7:53am
Clear
Clear
 Wind from varies
Wind: varies 3 mph , 6 km/h
Temperature: 18°F , -8°C
Dew Point: 9°F , -13°C
Humidity: 68%
Barometer: 30.24 inHg , 1024 hPa
Clouds: Clear
Visibility: 10 miles , 16 km
2018/01/18 13:53 KTOP 181353Z VRB03KT 10SM CLR M08/M13 A3024 RMK AO2 SLP253 T10831128
KFOE - Forbes Field Airport, Topeka, Kansas, USA
Updated: 01-18-2018 7:53am
Clear
Clear
 Wind from S
Wind: S 9 mph , 15 km/h
Temperature: 18°F , -8°C
Wind Chill: 7°F , -14°C
Dew Point: 9°F , -13°C
Humidity: 68%
Barometer: 30.22 inHg , 1023.4 hPa
Clouds: Clear
Visibility: 10 miles , 16 km
2018/01/18 13:53 KFOE 181353Z 18008KT 10SM CLR M08/M13 A3022 RMK AO2 SLP250 T10781128